KHIE/HIE METAR and TAF weather

Enter ICAO airport designator
Station Type Date Time Source
KHIE METAR 2024/05/28 22:52 UTC NOAA

KHIE 282252Z AUTO 30009KT 10SM BKN034 BKN045 OVC055 19/13 A2966 RMK AO2 SLP041 T01940128


Station Type Date Time Source
KHIE Decoded METAR 2024/05/28 22:52 UTC NOAA

MT WASHINGTON REGIONAL AIRPORT , NH, United States (KHIE) 44-22N 71-33W 318M
May 28, 2024 - 06:52 PM EDT / 2024.05.28 2252 UTC
Wind: from the WNW (300 degrees) at 10 MPH (9 KT):0
Visibility: 10 mile(s):0
Sky conditions: overcast
Temperature: 66.9 F (19.4 C)
Dew Point: 55.0 F (12.8 C)
Relative Humidity: 65%
Pressure (altimeter): 29.66 in. Hg (1004 hPa)
ob: KHIE 282252Z AUTO 30009KT 10SM BKN034 BKN045 OVC055 19/13 A2966 RMK AO2 SLP041 T01940128
cycle: 23

Station Type Date Time Source
KHIE TAF 2024/05/28 18:24 UTC NOAA